Time;durP1;ratioP1;P1;durP2;ratioP2;P2;SDS_P1;SDS_P2;PMS_P1;PMS_P2;Temp;Humidity;BMP_temperature;BMP_pressure;BME280_temperature;BME280_humidity;BME280_pressure;Samples;Min_cycle;Max_cycle;Signal;HPM_P1;HPM_P2
2024/01/29 00:01:30;;;;;;;4.47;2.70;;;8.50;99.90;;;;;;4157727;28;20029;-72
2024/01/29 00:03:31;;;;;;;5.88;3.25;;;8.50;99.90;;;;;;4157887;28;20028;-73
2024/01/29 00:05:31;;;;;;;5.78;2.72;;;8.50;99.90;;;;;;4157511;28;20033;-72
2024/01/29 00:07:32;;;;;;;7.28;2.83;;;8.50;99.90;;;;;;4157759;28;20049;-73
2024/01/29 00:09:33;;;;;;;4.53;2.58;;;8.40;99.90;;;;;;4157887;28;20382;-74
2024/01/29 00:11:34;;;;;;;6.18;3.22;;;8.40;99.90;;;;;;4139665;28;20033;-73
2024/01/29 00:13:35;;;;;;;5.22;2.78;;;8.50;99.90;;;;;;4141015;28;20510;-72
2024/01/29 00:15:35;;;;;;;4.85;2.60;;;8.50;99.90;;;;;;4157148;28;20737;-73
2024/01/29 00:17:36;;;;;;;4.40;2.45;;;8.40;99.90;;;;;;4157749;28;20060;-73
2024/01/29 00:19:36;;;;;;;7.00;2.70;;;8.40;99.90;;;;;;4124023;28;20033;-72
2024/01/29 00:21:37;;;;;;;5.90;2.83;;;8.40;99.90;;;;;;4157155;28;20060;-73
2024/01/29 00:23:37;;;;;;;9.40;3.40;;;8.50;99.90;;;;;;4157682;28;20025;-77
2024/01/29 00:25:38;;;;;;;6.68;3.13;;;8.50;99.90;;;;;;4157740;28;20050;-77
2024/01/29 00:27:39;;;;;;;5.47;2.70;;;8.40;99.90;;;;;;4159085;28;20028;-76
2024/01/29 00:29:39;;;;;;;6.45;2.75;;;8.50;99.90;;;;;;4154692;28;20088;-78
2024/01/29 00:31:40;;;;;;;7.18;3.10;;;8.40;99.90;;;;;;4158361;28;20042;-78
2024/01/29 00:33:40;;;;;;;4.38;2.80;;;8.40;99.90;;;;;;4158773;28;20041;-78
2024/01/29 00:35:41;;;;;;;6.90;3.22;;;8.40;99.90;;;;;;4157749;28;20038;-77
2024/01/29 00:37:42;;;;;;;5.82;3.17;;;8.40;99.90;;;;;;4158213;28;20105;-78
2024/01/29 00:39:42;;;;;;;8.35;2.92;;;8.40;99.90;;;;;;4157994;28;20040;-77
2024/01/29 00:41:43;;;;;;;5.38;3.05;;;8.40;99.90;;;;;;4157416;28;20029;-76
2024/01/29 00:43:43;;;;;;;8.32;3.22;;;8.30;99.90;;;;;;4158914;28;20041;-77
2024/01/29 00:45:44;;;;;;;8.98;3.60;;;8.30;99.90;;;;;;4156689;28;20041;-78
2024/01/29 00:47:44;;;;;;;5.60;2.72;;;8.40;99.90;;;;;;4157653;28;20037;-77
2024/01/29 00:49:45;;;;;;;7.85;2.95;;;8.40;99.90;;;;;;4158290;28;20402;-78
2024/01/29 00:51:46;;;;;;;6.93;2.90;;;8.30;99.90;;;;;;4153271;28;20037;-77
2024/01/29 00:53:47;;;;;;;5.35;2.78;;;8.40;99.90;;;;;;4158147;28;20030;-77
2024/01/29 00:55:48;;;;;;;8.80;2.92;;;8.40;99.90;;;;;;4157133;28;20479;-77
2024/01/29 00:57:48;;;;;;;5.30;2.53;;;8.30;99.90;;;;;;4157365;28;20116;-77
2024/01/29 00:59:49;;;;;;;7.28;2.90;;;8.30;99.90;;;;;;4140535;28;20120;-77
2024/01/29 01:01:49;;;;;;;4.53;2.70;;;8.30;99.90;;;;;;4157811;28;20034;-77
2024/01/29 01:03:50;;;;;;;4.47;2.70;;;8.30;99.90;;;;;;4158139;28;20033;-78
2024/01/29 01:05:51;;;;;;;5.65;2.58;;;8.30;99.90;;;;;;4157934;28;20471;-77
2024/01/29 01:07:51;;;;;;;5.55;2.63;;;8.30;99.90;;;;;;4156157;28;20430;-77
2024/01/29 01:09:52;;;;;;;6.20;2.80;;;8.30;99.90;;;;;;4158502;28;20039;-77
2024/01/29 01:11:53;;;;;;;5.57;2.95;;;8.30;99.90;;;;;;4157495;28;20065;-77
2024/01/29 01:13:53;;;;;;;4.80;2.60;;;8.30;99.90;;;;;;4158314;28;20037;-77
2024/01/29 01:15:54;;;;;;;5.53;2.88;;;8.20;99.90;;;;;;4157514;28;20044;-77
2024/01/29 01:17:56;;;;;;;5.63;2.53;;;8.30;99.90;;;;;;4158395;28;20037;-75
2024/01/29 01:19:57;;;;;;;6.70;2.97;;;8.30;99.90;;;;;;4158206;28;20040;-76
2024/01/29 01:21:57;;;;;;;5.18;2.90;;;8.20;99.90;;;;;;4157313;28;20491;-78
2024/01/29 01:23:58;;;;;;;4.28;2.55;;;8.20;99.90;;;;;;4158688;28;20025;-77
2024/01/29 01:25:58;;;;;;;6.75;2.65;;;8.20;99.90;;;;;;4157317;28;20014;-77
2024/01/29 01:27:59;;;;;;;7.75;3.20;;;8.20;99.90;;;;;;4158598;28;20614;-77
2024/01/29 01:30:00;;;;;;;4.93;2.70;;;8.20;99.90;;;;;;4158416;28;20192;-77
2024/01/29 01:32:00;;;;;;;4.72;2.58;;;8.20;99.90;;;;;;4157669;28;20041;-77
2024/01/29 01:34:01;;;;;;;4.85;2.47;;;8.20;99.90;;;;;;4157487;28;20038;-78
2024/01/29 01:36:02;;;;;;;4.05;2.55;;;8.20;99.90;;;;;;4160042;28;20029;-77
2024/01/29 01:38:02;;;;;;;5.22;3.22;;;8.20;99.90;;;;;;4160989;28;20041;-78
2024/01/29 01:40:04;;;;;;;5.88;2.45;;;8.20;99.90;;;;;;4161554;28;20040;-77
2024/01/29 01:42:05;;;;;;;7.03;2.60;;;8.20;99.90;;;;;;4160317;28;20037;-77
2024/01/29 01:44:05;;;;;;;6.03;2.90;;;8.20;99.90;;;;;;4161341;28;20037;-77
2024/01/29 01:46:06;;;;;;;4.07;2.70;;;8.20;99.90;;;;;;4160409;28;20113;-78
2024/01/29 01:48:07;;;;;;;6.13;3.03;;;8.20;99.90;;;;;;4159441;28;20462;-76
2024/01/29 01:50:09;;;;;;;4.30;2.90;;;8.20;99.90;;;;;;4141122;28;20093;-78
2024/01/29 01:52:10;;;;;;;5.87;3.03;;;8.10;99.90;;;;;;4160772;28;20037;-78
2024/01/29 01:54:11;;;;;;;8.43;2.92;;;8.10;99.90;;;;;;4161421;28;20041;-78
2024/01/29 01:56:13;;;;;;;6.43;3.00;;;8.10;99.90;;;;;;4159609;28;20029;-78
2024/01/29 01:58:17;;;;;;;4.63;2.90;;;8.10;99.90;;;;;;4143640;28;20412;-78
2024/01/29 02:00:18;;;;;;;7.18;3.17;;;8.10;99.90;;;;;;4160256;28;20072;-77
2024/01/29 02:02:19;;;;;;;5.57;2.65;;;8.10;99.90;;;;;;4160043;28;20021;-77
2024/01/29 02:04:20;;;;;;;5.22;3.00;;;8.10;99.90;;;;;;4160744;28;20428;-73
2024/01/29 02:06:21;;;;;;;5.13;3.33;;;8.10;99.90;;;;;;4159809;28;20107;-73
2024/01/29 02:08:22;;;;;;;5.53;2.90;;;8.10;99.90;;;;;;4143072;28;20109;-75
2024/01/29 02:10:23;;;;;;;5.15;2.70;;;8.10;99.90;;;;;;4158916;28;20566;-72
2024/01/29 02:12:24;;;;;;;6.22;2.60;;;8.10;99.90;;;;;;4160875;28;20044;-72
2024/01/29 02:14:24;;;;;;;5.55;2.67;;;8.10;99.90;;;;;;4161225;28;20433;-77
2024/01/29 02:16:25;;;;;;;4.82;2.80;;;8.10;99.90;;;;;;4160018;28;20395;-77
2024/01/29 02:18:25;;;;;;;5.78;2.85;;;8.10;99.90;;;;;;4159828;28;20100;-76
2024/01/29 02:20:26;;;;;;;4.28;2.78;;;8.10;99.90;;;;;;4160043;28;20033;-77
2024/01/29 02:22:26;;;;;;;4.57;2.45;;;8.10;99.90;;;;;;4163419;28;20036;-78
2024/01/29 02:24:27;;;;;;;5.75;3.20;;;8.10;99.90;;;;;;4142996;28;20040;-73
2024/01/29 02:26:28;;;;;;;4.47;2.80;;;8.10;99.90;;;;;;4159888;28;20449;-72
2024/01/29 02:28:28;;;;;;;4.63;3.05;;;8.10;99.90;;;;;;4161027;28;20064;-72
2024/01/29 02:30:29;;;;;;;9.25;3.63;;;8.10;99.90;;;;;;4158805;28;20342;-71
2024/01/29 02:32:30;;;;;;;4.50;2.70;;;8.00;99.90;;;;;;4141949;28;20042;-72
2024/01/29 02:34:30;;;;;;;4.68;2.63;;;8.10;99.90;;;;;;4155465;28;20037;-72
2024/01/29 02:36:31;;;;;;;4.13;2.72;;;8.10;99.90;;;;;;4159883;28;20053;-73
2024/01/29 02:38:31;;;;;;;6.53;3.22;;;8.00;99.90;;;;;;4159509;28;20091;-75
2024/01/29 02:40:32;;;;;;;5.60;2.72;;;8.10;99.90;;;;;;4159349;28;20033;-73
2024/01/29 02:42:32;;;;;;;5.03;3.05;;;8.00;99.90;;;;;;4158468;28;20033;-73
2024/01/29 02:44:33;;;;;;;6.70;2.90;;;8.10;99.90;;;;;;4156595;28;20025;-77
2024/01/29 02:46:34;;;;;;;6.93;3.38;;;8.00;99.90;;;;;;4158087;28;20033;-76
2024/01/29 02:48:35;;;;;;;5.43;3.30;;;8.00;99.90;;;;;;4157277;28;20061;-77
2024/01/29 02:50:35;;;;;;;4.82;2.70;;;8.00;99.90;;;;;;4157457;28;20376;-77
2024/01/29 02:52:36;;;;;;;7.18;3.05;;;8.00;99.90;;;;;;4157599;28;20491;-77
2024/01/29 02:54:37;;;;;;;7.38;3.13;;;8.00;99.90;;;;;;4158004;28;20034;-77
2024/01/29 02:56:37;;;;;;;4.28;2.70;;;8.00;99.90;;;;;;4156607;28;20113;-77
2024/01/29 02:58:38;;;;;;;4.22;2.72;;;8.00;99.90;;;;;;4159265;28;20033;-77
2024/01/29 03:00:39;;;;;;;6.70;3.08;;;8.00;99.90;;;;;;4158705;28;20045;-77
2024/01/29 03:02:39;;;;;;;6.50;3.00;;;8.00;99.90;;;;;;4156926;28;20037;-77
2024/01/29 03:04:40;;;;;;;5.60;2.55;;;8.00;99.90;;;;;;4159986;28;20486;-78
2024/01/29 03:06:40;;;;;;;8.43;2.80;;;8.00;99.90;;;;;;4159333;28;20535;-76
2024/01/29 03:08:42;;;;;;;5.97;3.22;;;7.90;99.90;;;;;;4160144;28;20399;-76
2024/01/29 03:10:43;;;;;;;5.65;2.80;;;8.00;99.90;;;;;;4159075;28;20568;-77
2024/01/29 03:12:43;;;;;;;6.63;2.75;;;8.00;99.90;;;;;;4159862;28;20041;-78
2024/01/29 03:14:44;;;;;;;5.15;3.10;;;8.00;99.90;;;;;;4159840;28;20053;-77
2024/01/29 03:16:45;;;;;;;7.25;2.88;;;7.90;99.90;;;;;;4157113;28;20033;-77
2024/01/29 03:18:45;;;;;;;4.82;2.83;;;7.90;99.90;;;;;;4142473;28;20041;-76
2024/01/29 03:20:46;;;;;;;5.43;3.13;;;7.90;99.90;;;;;;4159119;28;20510;-77
2024/01/29 03:22:46;;;;;;;8.00;2.80;;;7.90;99.90;;;;;;4159972;28;20033;-76
2024/01/29 03:24:47;;;;;;;7.32;3.08;;;7.90;99.90;;;;;;4159236;28;20087;-77
2024/01/29 03:26:47;;;;;;;6.32;2.97;;;7.80;99.90;;;;;;4159102;28;20100;-78
2024/01/29 03:28:48;;;;;;;6.97;2.92;;;7.80;99.90;;;;;;4159862;28;20040;-77
2024/01/29 03:30:49;;;;;;;8.25;2.97;;;7.80;99.90;;;;;;4159306;28;20483;-77
2024/01/29 03:32:51;;;;;;;5.97;2.92;;;7.80;99.90;;;;;;4158016;28;20099;-76
2024/01/29 03:34:52;;;;;;;7.25;3.03;;;7.80;99.90;;;;;;4159841;28;20116;-73
2024/01/29 03:36:53;;;;;;;6.53;2.72;;;7.80;99.90;;;;;;4157685;28;20391;-72
2024/01/29 03:38:53;;;;;;;4.85;2.88;;;7.80;99.90;;;;;;4141224;28;20654;-74
2024/01/29 03:40:54;;;;;;;8.93;3.35;;;7.80;99.90;;;;;;4158490;28;20407;-72
2024/01/29 03:42:54;;;;;;;4.93;2.75;;;7.70;99.90;;;;;;4159531;28;20426;-74
2024/01/29 03:44:55;;;;;;;5.35;2.97;;;7.70;99.90;;;;;;4159871;28;20431;-77
2024/01/29 03:46:55;;;;;;;5.53;3.03;;;7.70;99.90;;;;;;4157645;28;20490;-75
2024/01/29 03:48:56;;;;;;;6.50;3.17;;;7.70;99.90;;;;;;4159367;28;20407;-76
2024/01/29 03:50:57;;;;;;;5.85;2.53;;;7.70;99.90;;;;;;4158812;28;20528;-77
2024/01/29 03:52:57;;;;;;;6.90;2.80;;;7.70;99.90;;;;;;4159031;28;20037;-77
2024/01/29 03:54:58;;;;;;;4.63;2.65;;;7.70;99.90;;;;;;4159240;28;20403;-73
2024/01/29 03:56:59;;;;;;;5.85;2.80;;;7.70;99.90;;;;;;4157951;28;20031;-73
2024/01/29 03:58:59;;;;;;;5.82;2.72;;;7.70;99.90;;;;;;4159621;28;20091;-73
2024/01/29 04:01:00;;;;;;;4.85;2.85;;;7.70;99.90;;;;;;4158424;28;20415;-73
2024/01/29 04:03:03;;;;;;;8.10;3.33;;;7.70;99.90;;;;;;4158762;28;20384;-74
2024/01/29 04:05:04;;;;;;;4.60;2.95;;;7.70;99.90;;;;;;4158105;28;20129;-72
2024/01/29 04:07:05;;;;;;;5.28;2.80;;;7.70;99.90;;;;;;4157091;28;20103;-72
2024/01/29 04:09:07;;;;;;;5.72;2.67;;;7.60;99.90;;;;;;4158852;28;20037;-73
2024/01/29 04:11:08;;;;;;;6.68;2.90;;;7.60;99.90;;;;;;4154538;28;20061;-73
2024/01/29 04:13:09;;;;;;;5.57;2.95;;;7.60;99.90;;;;;;4141737;28;20034;-73
2024/01/29 04:15:10;;;;;;;7.93;3.17;;;7.60;99.90;;;;;;4140614;28;20037;-73
2024/01/29 04:17:12;;;;;;;6.22;3.15;;;7.60;99.90;;;;;;4158570;28;20387;-72
2024/01/29 04:19:13;;;;;;;5.38;2.90;;;7.60;99.90;;;;;;4157926;28;20048;-72
2024/01/29 04:21:14;;;;;;;7.05;2.80;;;7.50;99.90;;;;;;4158478;28;20099;-72
2024/01/29 04:23:14;;;;;;;7.05;3.40;;;7.50;99.90;;;;;;4158638;28;20034;-74
2024/01/29 04:25:15;;;;;;;4.43;2.42;;;7.50;99.90;;;;;;4157389;28;20533;-73
2024/01/29 04:27:15;;;;;;;5.78;2.97;;;7.50;99.90;;;;;;4157035;28;20048;-73
2024/01/29 04:29:16;;;;;;;6.25;2.65;;;7.60;99.90;;;;;;4158318;28;20096;-73
2024/01/29 04:31:17;;;;;;;5.22;2.70;;;7.50;99.90;;;;;;4138179;28;20476;-73
2024/01/29 04:33:17;;;;;;;6.03;2.88;;;7.50;99.90;;;;;;4156502;28;20578;-73
2024/01/29 04:35:18;;;;;;;8.52;3.10;;;7.50;99.90;;;;;;4154785;28;20479;-72
2024/01/29 04:37:19;;;;;;;5.55;2.97;;;7.40;99.90;;;;;;4156171;28;20045;-72
2024/01/29 04:39:19;;;;;;;5.10;3.00;;;7.50;99.90;;;;;;4157618;28;20040;-73
2024/01/29 04:41:21;;;;;;;4.35;2.70;;;7.50;99.90;;;;;;4157463;28;20029;-72
2024/01/29 04:43:22;;;;;;;4.50;2.58;;;7.50;99.90;;;;;;4157780;28;20176;-73
2024/01/29 04:45:23;;;;;;;6.38;2.67;;;7.40;99.90;;;;;;4155433;28;20041;-74
2024/01/29 04:47:23;;;;;;;5.57;3.20;;;7.40;99.90;;;;;;4157465;28;20044;-72
2024/01/29 04:49:24;;;;;;;6.93;2.92;;;7.40;99.90;;;;;;4157937;28;20044;-73
2024/01/29 04:51:26;;;;;;;5.85;3.00;;;7.40;99.90;;;;;;4139776;28;20030;-72
2024/01/29 04:53:27;;;;;;;8.77;2.75;;;7.40;99.90;;;;;;4138292;28;20049;-74
2024/01/29 04:55:27;;;;;;;5.55;2.60;;;7.40;99.90;;;;;;4156248;28;20033;-73
2024/01/29 04:57:28;;;;;;;6.88;2.70;;;7.40;99.90;;;;;;4157227;28;20116;-73
2024/01/29 04:59:29;;;;;;;4.45;2.67;;;7.40;99.90;;;;;;4156471;28;20032;-72
2024/01/29 05:01:29;;;;;;;9.43;3.05;;;7.40;99.90;;;;;;4155314;28;20041;-73
2024/01/29 05:03:30;;;;;;;4.97;2.88;;;7.40;99.90;;;;;;4156846;28;20418;-72
2024/01/29 05:05:31;;;;;;;6.60;2.90;;;7.30;99.90;;;;;;4156144;28;20064;-73
2024/01/29 05:07:31;;;;;;;7.13;3.25;;;7.30;99.90;;;;;;4157665;28;20100;-77
2024/01/29 05:09:32;;;;;;;4.18;2.25;;;7.30;99.90;;;;;;4160981;28;20022;-77
2024/01/29 05:11:32;;;;;;;6.97;3.15;;;7.30;99.90;;;;;;4161246;28;20136;-77
2024/01/29 05:13:33;;;;;;;4.03;2.70;;;7.30;99.90;;;;;;4157449;28;20041;-77
2024/01/29 05:15:34;;;;;;;4.28;2.33;;;7.30;99.90;;;;;;4159830;28;20041;-73
2024/01/29 05:17:35;;;;;;;7.30;3.45;;;7.30;99.90;;;;;;4160516;28;20581;-77
2024/01/29 05:19:37;;;;;;;8.23;2.78;;;7.30;99.90;;;;;;4160940;28;20083;-78
2024/01/29 05:21:37;;;;;;;5.28;3.10;;;7.30;99.90;;;;;;4160632;28;20030;-77
2024/01/29 05:23:38;;;;;;;3.63;2.42;;;7.20;99.90;;;;;;4160693;28;20060;-77
2024/01/29 05:25:38;;;;;;;5.28;3.13;;;7.20;99.90;;;;;;4160600;28;20399;-78
2024/01/29 05:27:39;;;;;;;6.03;3.00;;;7.20;99.90;;;;;;4158711;28;20030;-78
2024/01/29 05:29:40;;;;;;;6.90;3.47;;;7.20;99.90;;;;;;4160278;28;20100;-75
2024/01/29 05:31:40;;;;;;;5.03;2.97;;;7.20;99.90;;;;;;4160192;28;20395;-78
2024/01/29 05:33:41;;;;;;;4.93;3.00;;;7.20;99.90;;;;;;4161468;28;20486;-78
2024/01/29 05:35:41;;;;;;;10.45;3.50;;;7.20;99.90;;;;;;4160718;28;20494;-77
2024/01/29 05:37:42;;;;;;;7.03;3.20;;;7.20;99.90;;;;;;4161278;28;20626;-78
2024/01/29 05:39:42;;;;;;;6.70;3.00;;;7.20;99.90;;;;;;4161007;28;20040;-78
2024/01/29 05:41:43;;;;;;;6.88;3.42;;;7.20;99.90;;;;;;4159576;28;20511;-78
2024/01/29 05:43:44;;;;;;;4.82;2.88;;;7.20;99.90;;;;;;4158600;28;20569;-78
2024/01/29 05:45:46;;;;;;;5.70;2.97;;;7.20;99.90;;;;;;4142670;28;20438;-77
2024/01/29 05:47:46;;;;;;;7.25;3.20;;;7.20;99.90;;;;;;4161082;28;20049;-78
2024/01/29 05:49:47;;;;;;;4.72;2.83;;;7.20;99.90;;;;;;4160787;28;20040;-77
2024/01/29 05:51:48;;;;;;;4.47;2.88;;;7.20;99.90;;;;;;4160316;28;20021;-77
2024/01/29 05:53:49;;;;;;;8.05;2.97;;;7.20;99.90;;;;;;4159540;28;20033;-78
2024/01/29 05:55:50;;;;;;;8.93;3.42;;;7.20;99.90;;;;;;4159646;28;20049;-77
2024/01/29 05:57:51;;;;;;;7.38;3.05;;;7.20;99.90;;;;;;4157846;28;20502;-78
2024/01/29 05:59:56;;;;;;;5.45;3.28;;;7.20;99.90;;;;;;4158203;28;20026;-76
2024/01/29 06:01:57;;;;;;;7.38;2.92;;;7.20;99.90;;;;;;4141904;28;20117;-75
2024/01/29 06:03:57;;;;;;;7.20;3.35;;;7.20;99.90;;;;;;4140757;28;20038;-77
2024/01/29 06:05:58;;;;;;;6.95;3.10;;;7.10;99.90;;;;;;4160445;28;20095;-77
2024/01/29 06:07:58;;;;;;;6.47;3.53;;;7.10;99.90;;;;;;4157608;28;20037;-77
2024/01/29 06:09:59;;;;;;;7.97;3.35;;;7.10;99.90;;;;;;4160383;28;20037;-77
2024/01/29 06:12:00;;;;;;;7.57;3.67;;;7.20;99.90;;;;;;4160371;28;20029;-78
2024/01/29 06:14:00;;;;;;;5.93;3.35;;;7.20;99.90;;;;;;4160659;28;20051;-77
2024/01/29 06:16:01;;;;;;;6.55;3.20;;;7.20;99.90;;;;;;4159764;28;20107;-71
2024/01/29 06:18:02;;;;;;;5.22;3.40;;;7.10;99.90;;;;;;4160391;28;20041;-73
2024/01/29 06:20:04;;;;;;;7.22;3.25;;;7.10;99.90;;;;;;4160005;28;20041;-73
2024/01/29 06:22:04;;;;;;;6.38;3.20;;;7.10;99.90;;;;;;4138717;28;20034;-74
2024/01/29 06:27:05;;;;;;;9.80;3.53;;;7.10;99.90;;;;;;4154722;28;20408;-73
2024/01/29 06:29:05;;;;;;;8.77;3.47;;;7.10;99.90;;;;;;4163999;28;20050;-72
2024/01/29 06:31:06;;;;;;;6.53;3.58;;;7.10;99.90;;;;;;4159558;28;20045;-73
2024/01/29 06:33:07;;;;;;;7.55;3.75;;;7.00;99.90;;;;;;4160009;28;20831;-72
2024/01/29 06:35:08;;;;;;;7.00;3.90;;;7.00;99.90;;;;;;4142213;28;20057;-74
2024/01/29 06:37:08;;;;;;;7.45;3.33;;;7.00;99.90;;;;;;4142554;28;20034;-72
2024/01/29 06:39:09;;;;;;;7.32;3.33;;;7.00;99.90;;;;;;4159926;28;20506;-73
2024/01/29 06:41:23;;;;;;;6.22;3.50;;;7.00;99.90;;;;;;4151588;28;20503;-73
2024/01/29 06:43:24;;;;;;;7.15;3.50;;;7.10;99.90;;;;;;4136488;28;20105;-72
2024/01/29 06:45:24;;;;;;;5.88;2.72;;;7.00;99.90;;;;;;4141048;28;20396;-73
2024/01/29 06:47:25;;;;;;;6.55;3.28;;;7.00;99.90;;;;;;4159398;28;20091;-72
2024/01/29 06:49:30;;;;;;;7.40;3.40;;;7.00;99.90;;;;;;4159269;28;20107;-72
2024/01/29 06:51:31;;;;;;;4.40;3.00;;;7.00;99.90;;;;;;4155417;28;20034;-72
2024/01/29 06:53:35;;;;;;;7.75;3.60;;;7.00;99.90;;;;;;4155444;28;20453;-72
2024/01/29 06:55:36;;;;;;;6.88;3.25;;;7.00;99.90;;;;;;4151400;28;20033;-73
2024/01/29 06:57:37;;;;;;;5.57;3.38;;;7.00;99.90;;;;;;4156393;28;20037;-73
2024/01/29 06:59:37;;;;;;;5.53;3.40;;;7.00;99.90;;;;;;4156650;28;20045;-74
2024/01/29 07:01:38;;;;;;;8.63;3.75;;;7.00;99.90;;;;;;4124296;28;20034;-72
2024/01/29 07:03:38;;;;;;;9.07;3.63;;;7.00;99.90;;;;;;4141004;28;20804;-72
2024/01/29 07:05:39;;;;;;;6.93;3.60;;;6.90;99.90;;;;;;4139828;28;20161;-72
2024/01/29 07:07:39;;;;;;;7.13;3.92;;;6.90;99.90;;;;;;4158284;28;20040;-73
2024/01/29 07:09:40;;;;;;;5.78;3.40;;;6.90;99.90;;;;;;4140954;28;20279;-72
2024/01/29 07:11:41;;;;;;;5.82;3.90;;;6.90;99.90;;;;;;4157961;28;20573;-71
2024/01/29 07:13:41;;;;;;;5.32;3.15;;;6.90;99.90;;;;;;4139491;28;20476;-72
2024/01/29 07:15:42;;;;;;;6.65;2.95;;;6.90;99.90;;;;;;4157023;28;20467;-72
2024/01/29 07:17:43;;;;;;;6.13;3.40;;;7.00;99.90;;;;;;4142302;28;20042;-72
2024/01/29 07:19:45;;;;;;;10.20;3.92;;;6.90;99.90;;;;;;4157952;28;20116;-72
2024/01/29 07:21:45;;;;;;;6.75;3.30;;;7.00;99.90;;;;;;4155546;28;20101;-72
2024/01/29 07:23:46;;;;;;;7.07;3.30;;;6.90;99.90;;;;;;4157967;28;20534;-72
2024/01/29 07:25:47;;;;;;;6.18;3.67;;;7.00;99.90;;;;;;4139267;28;20130;-77
2024/01/29 07:27:48;;;;;;;6.00;3.08;;;7.00;99.90;;;;;;4157140;28;20025;-78
2024/01/29 07:29:48;;;;;;;5.55;3.30;;;7.00;99.90;;;;;;4159245;28;20434;-77
2024/01/29 07:31:52;;;;;;;6.93;3.60;;;7.00;99.90;;;;;;4157564;28;22533;-78
2024/01/29 07:33:53;;;;;;;9.23;3.38;;;7.00;99.90;;;;;;4158367;28;20025;-77
2024/01/29 07:35:53;;;;;;;4.72;3.10;;;6.90;99.90;;;;;;4157421;28;20402;-75
2024/01/29 07:37:54;;;;;;;5.13;3.05;;;6.90;99.90;;;;;;4142667;28;20559;-76
2024/01/29 07:39:55;;;;;;;7.07;3.63;;;7.00;99.90;;;;;;4152917;28;20052;-78
2024/01/29 07:41:56;;;;;;;8.10;3.95;;;6.90;99.90;;;;;;4154156;28;20037;-78
2024/01/29 07:43:56;;;;;;;10.20;3.78;;;7.00;99.90;;;;;;4158862;28;20403;-75
2024/01/29 07:45:57;;;;;;;5.15;3.03;;;7.00;99.90;;;;;;4157639;28;20105;-74
2024/01/29 07:47:59;;;;;;;6.05;3.60;;;7.00;99.90;;;;;;4157868;28;20029;-73
2024/01/29 07:50:00;;;;;;;5.03;3.08;;;7.00;99.90;;;;;;4156320;28;20079;-74
2024/01/29 07:52:01;;;;;;;4.95;3.25;;;7.00;99.90;;;;;;4153398;28;20061;-74
2024/01/29 07:54:02;;;;;;;7.72;3.50;;;7.10;99.90;;;;;;4157638;28;20483;-74
2024/01/29 07:56:02;;;;;;;7.05;3.63;;;7.10;99.90;;;;;;4157819;28;20463;-73
2024/01/29 07:58:03;;;;;;;4.95;3.40;;;7.10;99.90;;;;;;4151991;28;21535;-73
2024/01/29 08:00:05;;;;;;;7.43;3.83;;;7.10;99.90;;;;;;4156699;28;20411;-74
2024/01/29 08:02:07;;;;;;;6.10;3.67;;;7.20;99.90;;;;;;4155173;28;20044;-74
2024/01/29 08:04:07;;;;;;;5.72;3.35;;;7.40;99.90;;;;;;4140026;28;20029;-74
2024/01/29 08:06:08;;;;;;;5.53;3.40;;;7.60;99.90;;;;;;4157421;28;20040;-75
2024/01/29 08:08:08;;;;;;;7.35;3.60;;;7.70;99.90;;;;;;4154031;28;20079;-74
2024/01/29 08:10:09;;;;;;;11.15;3.78;;;7.80;99.90;;;;;;4158258;28;20049;-74
2024/01/29 08:12:10;;;;;;;7.40;3.40;;;7.90;99.90;;;;;;4156804;28;20033;-74
2024/01/29 08:14:11;;;;;;;6.50;3.67;;;8.00;99.90;;;;;;4140227;28;20026;-74
2024/01/29 08:16:11;;;;;;;6.00;4.03;;;8.20;99.90;;;;;;4142439;28;20045;-73
2024/01/29 08:18:12;;;;;;;7.97;4.00;;;8.30;99.90;;;;;;4141295;28;20034;-74
2024/01/29 08:20:12;;;;;;;7.57;3.83;;;8.50;99.90;;;;;;4157361;28;20101;-74
2024/01/29 08:22:13;;;;;;;6.93;3.63;;;8.70;99.90;;;;;;4140820;28;20048;-74
2024/01/29 08:24:14;;;;;;;7.55;3.70;;;8.80;99.90;;;;;;4141044;28;20038;-73
2024/01/29 08:26:14;;;;;;;4.82;3.42;;;9.00;99.90;;;;;;4123427;28;20035;-73
2024/01/29 08:28:15;;;;;;;7.38;3.40;;;9.10;99.90;;;;;;4155546;28;20403;-73
2024/01/29 08:30:16;;;;;;;6.32;3.30;;;9.20;99.90;;;;;;4154634;28;20087;-73
2024/01/29 08:32:19;;;;;;;5.72;3.65;;;9.30;99.90;;;;;;4157116;28;20038;-74
2024/01/29 08:34:19;;;;;;;8.73;3.92;;;9.40;99.90;;;;;;4139287;28;20100;-73
2024/01/29 08:36:21;;;;;;;6.90;3.35;;;9.50;99.90;;;;;;4155790;28;20491;-77
2024/01/29 08:38:22;;;;;;;9.18;3.63;;;9.60;99.90;;;;;;4134760;28;20108;-77
2024/01/29 08:40:23;;;;;;;7.68;3.40;;;9.60;99.90;;;;;;4157392;28;20045;-79
2024/01/29 08:42:23;;;;;;;9.25;3.50;;;9.80;99.90;;;;;;4138680;28;20085;-78
2024/01/29 08:44:25;;;;;;;7.00;3.65;;;9.80;99.90;;;;;;4155378;28;20037;-78
2024/01/29 08:46:25;;;;;;;6.18;3.75;;;9.80;99.90;;;;;;4157499;28;20146;-77
2024/01/29 08:48:26;;;;;;;5.40;3.30;;;9.80;99.90;;;;;;4158360;28;20398;-78
2024/01/29 08:50:27;;;;;;;5.40;3.10;;;9.80;99.90;;;;;;4139339;28;21075;-77
2024/01/29 08:52:27;;;;;;;4.90;3.05;;;9.80;99.90;;;;;;4155485;28;20402;-78
2024/01/29 08:54:28;;;;;;;7.03;3.53;;;9.80;99.90;;;;;;4158500;28;20388;-77
2024/01/29 08:56:31;;;;;;;4.82;3.20;;;9.90;99.90;;;;;;4155996;28;20487;-78
2024/01/29 08:58:32;;;;;;;4.57;3.10;;;9.90;99.90;;;;;;4157138;28;20083;-77
2024/01/29 09:00:32;;;;;;;5.45;3.30;;;10.00;99.90;;;;;;4156071;28;20033;-78
2024/01/29 09:02:33;;;;;;;6.07;3.75;;;10.00;99.90;;;;;;4155732;28;20513;-78
2024/01/29 09:04:34;;;;;;;5.13;3.00;;;10.00;99.90;;;;;;4157602;28;20038;-77
2024/01/29 09:06:34;;;;;;;9.27;4.03;;;10.00;99.90;;;;;;4144674;28;20061;-74
2024/01/29 09:08:35;;;;;;;6.82;3.28;;;10.00;99.90;;;;;;4158285;28;20041;-74
2024/01/29 09:10:36;;;;;;;5.28;3.55;;;9.90;99.90;;;;;;4155955;28;20474;-74
2024/01/29 09:12:36;;;;;;;7.53;3.95;;;9.90;99.90;;;;;;4120287;28;20171;-74
2024/01/29 09:14:37;;;;;;;9.52;4.07;;;10.00;99.90;;;;;;4140425;28;20029;-74
2024/01/29 09:16:39;;;;;;;6.47;3.70;;;10.00;99.90;;;;;;4153764;28;20129;-74
2024/01/29 09:18:39;;;;;;;5.78;3.50;;;10.10;99.90;;;;;;4157010;28;20080;-74
2024/01/29 09:20:40;;;;;;;7.97;3.95;;;10.30;99.90;;;;;;4156968;28;20495;-74
2024/01/29 09:22:41;;;;;;;7.57;4.20;;;10.40;99.90;;;;;;4158111;28;20406;-74
2024/01/29 09:24:41;;;;;;;6.30;3.50;;;10.60;99.90;;;;;;4124055;28;20048;-74
2024/01/29 09:26:42;;;;;;;6.20;3.67;;;10.70;99.90;;;;;;4139037;28;20026;-74
2024/01/29 09:28:43;;;;;;;8.70;4.55;;;10.80;99.90;;;;;;4156356;28;20108;-74
2024/01/29 09:30:44;;;;;;;7.97;4.55;;;10.90;99.90;;;;;;4157327;28;20029;-75
2024/01/29 09:32:44;;;;;;;6.70;3.83;;;11.10;99.90;;;;;;4157924;28;20483;-74
2024/01/29 09:34:45;;;;;;;5.32;3.45;;;11.10;99.90;;;;;;4140211;28;20042;-74
2024/01/29 09:36:45;;;;;;;9.82;4.22;;;11.20;99.90;;;;;;4156293;28;20491;-74
2024/01/29 09:38:46;;;;;;;10.35;4.28;;;11.20;99.90;;;;;;4156041;28;20407;-74
2024/01/29 09:40:47;;;;;;;7.93;4.10;;;11.20;99.90;;;;;;4146679;28;20395;-75
2024/01/29 09:42:50;;;;;;;5.63;3.80;;;11.20;99.90;;;;;;4139323;28;20084;-74
2024/01/29 09:44:54;;;;;;;5.68;3.78;;;11.10;99.90;;;;;;4157126;28;20132;-74
2024/01/29 09:46:56;;;;;;;6.25;3.92;;;11.10;99.90;;;;;;4155183;28;20041;-75
2024/01/29 09:48:58;;;;;;;6.93;4.03;;;11.20;99.90;;;;;;4157010;28;20120;-75
2024/01/29 09:51:00;;;;;;;6.07;3.70;;;11.30;99.90;;;;;;4156714;28;20399;-74
2024/01/29 09:53:02;;;;;;;6.20;3.88;;;11.30;99.90;;;;;;4156503;28;20080;-75
2024/01/29 09:55:05;;;;;;;8.10;4.20;;;11.30;99.90;;;;;;4140365;28;20601;-75
2024/01/29 09:57:11;;;;;;;6.80;3.80;;;11.40;99.90;;;;;;4142461;28;20038;-75
2024/01/29 09:59:12;;;;;;;5.40;3.75;;;11.40;99.90;;;;;;4144954;28;20045;-75
2024/01/29 10:01:15;;;;;;;7.32;4.30;;;11.40;99.90;;;;;;4142581;28;20041;-75
2024/01/29 10:03:21;;;;;;;;;;;11.50;99.90;;;;;;4144961;28;20053;-74
2024/01/29 10:05:29;;;;;;;8.88;4.07;;;11.40;99.90;;;;;;4143562;28;20363;-75
2024/01/29 10:07:29;;;;;;;6.30;3.90;;;11.50;99.90;;;;;;4158575;28;20394;-74
2024/01/29 10:09:30;;;;;;;6.45;3.75;;;11.50;99.90;;;;;;4141252;28;20104;-74
2024/01/29 10:11:31;;;;;;;4.90;3.50;;;11.60;99.90;;;;;;4141872;28;20480;-73
2024/01/29 10:13:32;;;;;;;7.43;3.95;;;11.60;99.90;;;;;;4144130;28;20034;-74
2024/01/29 10:15:33;;;;;;;7.68;4.20;;;11.60;99.90;;;;;;4143505;28;20428;-74
2024/01/29 10:17:34;;;;;;;5.90;3.38;;;11.60;99.90;;;;;;4144350;28;20088;-74
2024/01/29 10:19:38;;;;;;;5.65;3.33;;;11.60;99.90;;;;;;4144800;28;20387;-73
2024/01/29 10:21:45;;;;;;;7.20;4.18;;;11.70;99.90;;;;;;4143102;28;20065;-74
2024/01/29 10:23:57;;;;;;;7.45;4.32;;;11.70;99.90;;;;;;4142284;28;20045;-74
2024/01/29 10:26:00;;;;;;;7.13;4.05;;;11.60;99.90;;;;;;4142424;28;20030;-74
2024/01/29 10:28:13;;;;;;;7.32;4.63;;;11.60;99.90;;;;;;4143945;28;20042;-74
2024/01/29 10:30:14;;;;;;;6.75;3.45;;;11.60;99.90;;;;;;4139384;28;20415;-74
2024/01/29 10:32:15;;;;;;;6.78;4.20;;;11.60;99.90;;;;;;4140199;28;20029;-73
2024/01/29 10:34:16;;;;;;;6.82;3.78;;;11.60;99.90;;;;;;4143594;28;22342;-75
2024/01/29 10:36:18;;;;;;;5.88;3.53;;;11.70;99.90;;;;;;4142684;28;20034;-74
2024/01/29 10:38:22;;;;;;;9.60;4.57;;;11.70;99.90;;;;;;4140776;28;20479;-74
2024/01/29 10:40:23;;;;;;;6.65;4.05;;;11.70;99.90;;;;;;4141778;28;20042;-74